Portada
METAR-TAF:

METAR-TAF

Aeropuertos :

Aeropuerto Internacional de Bania Luka

Bania Luka, Bosnia y Herzegovina

latitud: 44-47N, longitud: 017-13E, altitud: 156 m

Observación

El informe se hizo hace 19 minutos, a las 06:30 UTC
Viento 2 kt del norte-noroeste
Temperatura 21°C
Humedad 73%
Presión 1008 hPa
Visibilidad 10 km o más
sin nubes por debajo de 1500 m y sin presencia de cumulonimbus.

METAR: LQBK 070630Z 34002KT CAVOK 21/16 Q1008 NOSIG

Hora: 08:49 (06:49 UTC)

Pronóstico

El informe se hizo hace 1 hora y 49 minutos, a las 05:00 UTC
Pronóstico válido del 07 a las 06 UTC al 08 a las 06 UTC
Viento 5 kt del sur
Visibilidad 10 km o más
sin nubes por debajo de 1500 m y sin presencia de cumulonimbus.
Temporalmente
del 07 a las 13 UTC al 07 a las 18 UTC
Viento 12 kt del oeste

TAF: LQBK 070500Z 0706/0806 19005KT CAVOK TX28/0713Z TN14/0803Z TEMPO 0713/0718 27012KT

Observaciones y pronósticos meteorológicos de más de 4000 aeropuertos (mensajes METAR y TAF).

Los puntos amarillos y rojos representan las estaciones disponibles.

Ponga el ratón en el punto deseado para ver el nombre de la estación.

Haga clic para ver las observaciones y los pronósticos meteorológicos.

Para cambiar el mapa : haga clic en los botones verdes con una cruz de color negro para hacer un zoom, en el botón verde con un guión para alejar o en las flechas verdes para mapas adyacentes.


METAR-TAF: